Time;durP1;ratioP1;P1;durP2;ratioP2;P2;SDS_P1;SDS_P2;PMS_P1;PMS_P2;Temp;Humidity;BMP_temperature;BMP_pressure;BME280_temperature;BME280_humidity;BME280_pressure;Samples;Min_cycle;Max_cycle;Signal;HPM_P1;HPM_P2
2023/10/08 06:56:28;;;;;;;10.00;4.20;;;;;;;;;;5479259;22;20060;-82
2023/10/08 06:58:53;;;;;;;9.90;4.22;;;;;;;;;;5014222;28;20038;-87
2023/10/08 07:01:24;;;;;;;7.60;4.78;;;;;;;;;;5014744;28;20034;-88
2023/10/08 07:03:56;;;;;;;7.68;4.68;;;;;;;;;;5015388;28;20115;-86
2023/10/08 10:51:07;;;;;;;17.05;4.70;;;;;;;;;;5016638;28;20030;-90
2023/10/08 10:54:07;;;;;;;10.05;4.25;;;;;;;;;;4996465;28;20026;-90
2023/10/08 10:56:40;;;;;;;7.55;3.95;;;;;;;;;;4993809;28;20358;-86
2023/10/08 10:59:27;;;;;;;11.32;4.05;;;;;;;;;;4994862;28;20094;-91
2023/10/08 11:05:01;;;;;;;7.78;3.75;;;;;;;;;;4954042;29;20027;-90
2023/10/08 11:07:27;;;;;;;10.90;4.30;;;;;;;;;;4987988;28;20508;-91
2023/10/08 11:09:55;;;;;;;8.70;4.03;;;;;;;;;;4995126;28;20358;-91
2023/10/08 11:12:28;;;;;;;10.93;3.95;;;;;;;;;;4994642;28;20023;-91
2023/10/08 11:14:56;;;;;;;10.80;4.00;;;;;;;;;;4993560;28;20156;-92
2023/10/08 11:17:26;;;;;;;7.03;3.75;;;;;;;;;;4994692;28;20023;-90
2023/10/08 11:19:55;;;;;;;11.60;3.97;;;;;;;;;;4994680;28;20034;-88
2023/10/08 11:22:22;;;;;;;7.78;3.58;;;;;;;;;;4994644;28;20038;-89
2023/10/08 11:24:48;;;;;;;9.32;3.80;;;;;;;;;;4995022;28;20031;-88
2023/10/08 11:27:16;;;;;;;9.68;3.55;;;;;;;;;;4994982;28;20109;-91
2023/10/08 11:29:47;;;;;;;9.63;3.88;;;;;;;;;;4995863;28;20153;-90
2023/10/08 11:32:17;;;;;;;7.72;3.67;;;;;;;;;;4996463;28;20058;-95
2023/10/08 11:34:49;;;;;;;7.50;3.72;;;;;;;;;;4998656;28;20058;-93
2023/10/08 11:37:34;;;;;;;8.85;3.85;;;;;;;;;;4998389;28;20026;-87
2023/10/08 11:40:08;;;;;;;9.98;3.78;;;;;;;;;;4995388;28;20465;-93
2023/10/08 11:45:17;;;;;;;6.78;4.15;;;;;;;;;;4994576;28;20113;-88
2023/10/08 11:47:44;;;;;;;7.45;3.60;;;;;;;;;;4993690;28;20105;-88
2023/10/08 11:50:11;;;;;;;9.95;4.60;;;;;;;;;;4993968;28;20383;-89
2023/10/08 11:52:44;;;;;;;10.73;3.83;;;;;;;;;;5001136;28;20029;-95
2023/10/08 11:55:10;;;;;;;11.23;3.80;;;;;;;;;;5000798;28;20034;-95
2023/10/08 11:57:36;;;;;;;9.35;3.92;;;;;;;;;;4994981;28;20030;-94
2023/10/08 12:00:18;;;;;;;9.73;3.70;;;;;;;;;;4994811;28;20041;-93
2023/10/08 12:02:47;;;;;;;10.18;4.30;;;;;;;;;;4994637;28;20062;-95
2023/10/08 12:05:19;;;;;;;12.90;4.35;;;;;;;;;;4994694;28;20432;-95
2023/10/08 12:07:50;;;;;;;11.02;4.57;;;;;;;;;;4993685;28;20038;-92
2023/10/08 12:10:21;;;;;;;7.97;3.50;;;;;;;;;;4997252;28;20037;-95
2023/10/08 12:12:54;;;;;;;9.90;4.00;;;;;;;;;;4997795;28;20109;-94
2023/10/08 12:15:26;;;;;;;11.18;4.15;;;;;;;;;;4996926;28;20033;-93
2023/10/08 12:20:43;;;;;;;8.73;4.07;;;;;;;;;;4998075;28;20037;-94
2023/10/08 12:23:19;;;;;;;8.45;3.72;;;;;;;;;;4997976;28;20026;-94
2023/10/08 12:25:51;;;;;;;12.32;4.43;;;;;;;;;;4997937;28;20018;-92
2023/10/08 12:28:18;;;;;;;11.68;4.03;;;;;;;;;;4997772;28;20358;-94
2023/10/08 12:30:45;;;;;;;8.82;3.75;;;;;;;;;;4998702;28;20080;-94
2023/10/08 12:33:15;;;;;;;11.00;3.72;;;;;;;;;;4997045;28;20032;-94
2023/10/08 12:35:53;;;;;;;11.38;4.38;;;;;;;;;;4998298;28;20104;-94
2023/10/08 12:38:22;;;;;;;11.15;4.00;;;;;;;;;;4999644;28;20073;-92
2023/10/08 12:40:53;;;;;;;14.27;4.13;;;;;;;;;;4998952;28;20038;-91
2023/10/08 12:43:26;;;;;;;10.32;4.65;;;;;;;;;;4999600;28;20144;-92
2023/10/08 12:45:53;;;;;;;9.32;4.22;;;;;;;;;;5011151;28;20042;-92
2023/10/08 12:48:27;;;;;;;9.48;4.30;;;;;;;;;;5001803;28;20026;-90
2023/10/08 12:50:53;;;;;;;13.10;4.70;;;;;;;;;;5001270;28;20030;-92
2023/10/08 12:53:36;;;;;;;8.77;3.72;;;;;;;;;;5003150;28;20025;-88
2023/10/08 12:56:05;;;;;;;14.30;4.40;;;;;;;;;;5000276;28;20030;-90
2023/10/08 12:58:38;;;;;;;9.15;3.90;;;;;;;;;;4998977;28;20026;-91
2023/10/08 13:01:06;;;;;;;13.80;3.90;;;;;;;;;;5000635;28;20033;-93
2023/10/08 13:03:32;;;;;;;10.05;3.67;;;;;;;;;;4999069;28;20041;-92
2023/10/08 13:06:04;;;;;;;10.30;3.70;;;;;;;;;;4997092;28;20042;-89
2023/10/08 13:08:31;;;;;;;6.78;3.58;;;;;;;;;;4997614;28;20022;-91
2023/10/08 13:11:04;;;;;;;7.10;3.78;;;;;;;;;;4996446;28;20035;-90
2023/10/08 13:13:33;;;;;;;10.93;3.70;;;;;;;;;;4996584;28;20054;-91
2023/10/08 13:16:03;;;;;;;12.50;4.60;;;;;;;;;;4996188;28;20026;-88
2023/10/08 14:50:56;;;;;;;12.65;3.42;;;;;;;;;;5032684;28;20531;-81
2023/10/08 14:53:24;;;;;;;5.82;2.75;;;;;;;;;;5051502;28;20033;-81
2023/10/08 14:55:50;;;;;;;7.07;2.90;;;;;;;;;;5072456;28;20021;-82
2023/10/08 14:58:15;;;;;;;6.70;3.20;;;;;;;;;;5053387;28;20029;-81
2023/10/08 15:00:41;;;;;;;6.70;3.08;;;;;;;;;;5053445;28;20499;-81
2023/10/08 15:03:08;;;;;;;8.30;3.30;;;;;;;;;;5053321;28;20025;-81
2023/10/08 15:05:36;;;;;;;6.20;2.72;;;;;;;;;;5063957;28;20024;-81
2023/10/08 15:08:03;;;;;;;7.40;3.45;;;;;;;;;;5073308;28;20029;-80
2023/10/08 15:10:30;;;;;;;5.82;3.40;;;;;;;;;;5073452;28;20029;-80
2023/10/08 15:12:57;;;;;;;9.23;3.20;;;;;;;;;;5055292;28;20024;-80
2023/10/08 15:15:24;;;;;;;6.78;3.55;;;;;;;;;;5073282;28;20024;-82
2023/10/08 15:17:51;;;;;;;6.38;3.50;;;;;;;;;;5073204;28;20402;-82
2023/10/08 15:20:19;;;;;;;6.97;3.22;;;;;;;;;;5073284;28;20102;-83
2023/10/08 15:22:47;;;;;;;8.77;3.45;;;;;;;;;;5061572;28;20028;-84
2023/10/08 15:25:14;;;;;;;8.43;3.58;;;;;;;;;;5053037;28;20376;-80
2023/10/08 15:27:41;;;;;;;9.27;3.33;;;;;;;;;;5051841;28;20029;-82
2023/10/08 15:30:15;;;;;;;7.18;3.33;;;;;;;;;;5053147;28;20036;-83
2023/10/08 15:32:45;;;;;;;8.70;3.53;;;;;;;;;;5053228;28;20021;-83
2023/10/08 15:35:14;;;;;;;9.90;3.67;;;;;;;;;;5051683;28;20025;-80
2023/10/08 15:37:40;;;;;;;9.75;3.38;;;;;;;;;;5039947;28;20032;-82
2023/10/08 15:40:07;;;;;;;10.05;3.95;;;;;;;;;;5033166;28;20029;-85
2023/10/08 17:41:46;;;;;;;11.05;3.25;;;;;;;;;;5382560;22;20044;-84
2023/10/08 17:44:13;;;;;;;6.35;2.85;;;;;;;;;;5054915;28;20487;-82
2023/10/08 17:46:39;;;;;;;8.95;3.08;;;;;;;;;;5054987;28;20039;-81
2023/10/08 17:49:05;;;;;;;9.98;3.28;;;;;;;;;;5054860;28;20029;-82
2023/10/08 17:51:34;;;;;;;6.32;2.95;;;;;;;;;;5054604;28;20429;-83
2023/10/08 17:54:01;;;;;;;9.43;2.85;;;;;;;;;;5054894;28;20040;-82
2023/10/08 17:56:28;;;;;;;10.75;2.90;;;;;;;;;;5054656;28;20093;-81
2023/10/08 17:58:54;;;;;;;8.40;3.05;;;;;;;;;;5054623;28;20033;-84
2023/10/08 18:01:19;;;;;;;8.00;3.33;;;;;;;;;;5054776;28;20108;-83
2023/10/08 18:03:47;;;;;;;8.63;3.00;;;;;;;;;;5054715;28;20060;-84
2023/10/08 18:06:14;;;;;;;6.95;2.50;;;;;;;;;;5053788;28;20380;-84
2023/10/08 18:08:44;;;;;;;8.15;4.10;;;;;;;;;;5053932;28;20021;-83
2023/10/08 18:11:10;;;;;;;10.70;3.85;;;;;;;;;;5054405;28;20028;-85
2023/10/08 18:13:42;;;;;;;11.00;2.95;;;;;;;;;;5054464;28;20025;-85
2023/10/08 18:16:12;;;;;;;7.70;2.92;;;;;;;;;;5053084;28;20432;-84
2023/10/08 18:18:39;;;;;;;8.85;2.70;;;;;;;;;;5054244;28;20025;-82
2023/10/08 18:21:26;;;;;;;8.55;2.50;;;;;;;;;;5054575;28;20033;-82
2023/10/08 18:23:51;;;;;;;12.07;4.13;;;;;;;;;;5054407;28;20032;-80
2023/10/08 18:26:17;;;;;;;11.57;3.38;;;;;;;;;;5053003;28;20029;-80
2023/10/08 18:53:29;;;;;;;9.52;3.03;;;;;;;;;;5236795;22;20045;-83
2023/10/08 18:56:05;;;;;;;8.32;3.58;;;;;;;;;;5053508;28;20043;-85
2023/10/08 18:58:31;;;;;;;11.80;3.60;;;;;;;;;;5035904;28;20044;-83
2023/10/08 19:00:57;;;;;;;8.25;4.18;;;;;;;;;;5033262;28;20085;-84
2023/10/08 19:03:22;;;;;;;9.63;4.35;;;;;;;;;;5033711;28;20064;-84
2023/10/08 19:05:48;;;;;;;8.27;3.40;;;;;;;;;;5033509;28;20080;-85
2023/10/08 19:08:14;;;;;;;10.93;3.85;;;;;;;;;;5033893;28;20025;-84
2023/10/08 19:10:40;;;;;;;13.32;3.90;;;;;;;;;;5033743;28;20049;-85
2023/10/08 19:13:06;;;;;;;11.23;4.03;;;;;;;;;;5033546;28;20064;-84
2023/10/08 19:15:34;;;;;;;8.40;3.20;;;;;;;;;;5033008;28;20029;-82
2023/10/08 19:18:04;;;;;;;8.38;3.00;;;;;;;;;;5034484;28;20048;-84
2023/10/08 19:20:35;;;;;;;9.02;2.92;;;;;;;;;;5036087;28;20397;-85
2023/10/08 19:23:01;;;;;;;10.25;3.00;;;;;;;;;;5037563;28;20420;-85
2023/10/08 19:25:27;;;;;;;9.40;3.08;;;;;;;;;;5035954;28;20028;-85
2023/10/08 19:27:53;;;;;;;12.45;3.45;;;;;;;;;;5032580;28;20383;-86
2023/10/08 19:30:19;;;;;;;6.43;3.47;;;;;;;;;;5037459;28;20168;-87
2023/10/08 19:32:46;;;;;;;7.13;2.97;;;;;;;;;;5036381;28;20026;-85
2023/10/08 19:35:12;;;;;;;7.50;3.30;;;;;;;;;;5037746;28;20018;-86
2023/10/08 19:37:39;;;;;;;8.35;3.38;;;;;;;;;;5036239;28;20030;-86
2023/10/08 19:40:10;;;;;;;7.85;2.60;;;;;;;;;;5037199;28;20068;-86
2023/10/08 19:42:38;;;;;;;6.75;2.65;;;;;;;;;;5035983;28;20477;-86
2023/10/08 19:45:11;;;;;;;10.13;3.28;;;;;;;;;;5037312;28;20464;-82
2023/10/08 19:47:37;;;;;;;10.00;2.83;;;;;;;;;;5037189;28;20030;-84
2023/10/08 19:50:05;;;;;;;7.35;3.28;;;;;;;;;;5037051;28;20101;-83
2023/10/08 19:52:32;;;;;;;10.75;3.88;;;;;;;;;;5036926;28;20132;-83
2023/10/08 19:54:57;;;;;;;12.15;3.33;;;;;;;;;;5037116;28;20490;-83
2023/10/08 19:57:23;;;;;;;10.48;3.60;;;;;;;;;;5036892;28;20108;-86
2023/10/08 19:59:48;;;;;;;9.13;3.95;;;;;;;;;;5037062;28;20033;-81
2023/10/08 20:02:14;;;;;;;10.27;3.78;;;;;;;;;;5036987;28;20434;-85
2023/10/08 20:04:39;;;;;;;12.07;3.22;;;;;;;;;;5037056;28;20033;-82
2023/10/08 20:07:05;;;;;;;6.45;2.95;;;;;;;;;;5036848;28;20041;-82
2023/10/08 20:09:31;;;;;;;10.30;3.90;;;;;;;;;;5036533;28;20472;-82
2023/10/08 20:11:57;;;;;;;7.00;3.40;;;;;;;;;;5036709;28;20111;-83
2023/10/08 20:14:22;;;;;;;10.73;3.50;;;;;;;;;;5036697;28;20061;-85
2023/10/08 20:16:52;;;;;;;9.65;3.72;;;;;;;;;;5036654;28;20084;-86
2023/10/08 20:19:18;;;;;;;;;;;;;;;;;;5037087;28;20022;-84
2023/10/08 20:21:45;;;;;;;8.27;2.85;;;;;;;;;;5036664;28;19913;-84
2023/10/08 20:24:10;;;;;;;6.72;3.17;;;;;;;;;;5036269;28;20025;-84
2023/10/08 20:26:36;;;;;;;10.07;3.20;;;;;;;;;;5036407;28;20087;-84
2023/10/08 20:29:03;;;;;;;5.63;2.83;;;;;;;;;;5035919;28;20025;-82
2023/10/08 20:31:28;;;;;;;11.27;3.95;;;;;;;;;;5035718;28;20027;-83
2023/10/08 20:33:55;;;;;;;10.45;3.95;;;;;;;;;;5036416;28;20022;-82
2023/10/08 20:36:21;;;;;;;12.37;3.57;;;;;;;;;;5036239;28;20049;-82
2023/10/08 20:38:46;;;;;;;8.77;3.38;;;;;;;;;;5035039;28;20491;-82
2023/10/08 20:41:16;;;;;;;8.73;3.58;;;;;;;;;;5036270;28;20064;-82
2023/10/08 20:43:41;;;;;;;9.50;3.63;;;;;;;;;;5035967;28;20021;-82
2023/10/08 20:46:07;;;;;;;8.15;3.20;;;;;;;;;;5036094;28;20028;-82
2023/10/08 20:48:34;;;;;;;9.60;2.80;;;;;;;;;;5035961;28;20112;-83
2023/10/08 20:50:59;;;;;;;9.82;3.33;;;;;;;;;;5035911;28;20523;-83
2023/10/08 20:53:25;;;;;;;9.75;2.88;;;;;;;;;;5035717;28;20129;-82
2023/10/08 20:55:52;;;;;;;8.07;2.92;;;;;;;;;;5036097;28;20053;-82
2023/10/08 20:58:18;;;;;;;7.38;3.33;;;;;;;;;;5035869;28;20033;-82
2023/10/08 21:00:45;;;;;;;9.13;3.00;;;;;;;;;;5035933;28;20025;-81
2023/10/08 21:03:11;;;;;;;10.02;2.80;;;;;;;;;;5034598;28;20025;-82
2023/10/08 21:05:39;;;;;;;10.35;3.47;;;;;;;;;;5035928;28;20108;-82
2023/10/08 21:08:05;;;;;;;8.45;3.13;;;;;;;;;;5035833;28;20028;-82
2023/10/08 21:10:33;;;;;;;8.55;2.90;;;;;;;;;;5035436;28;20088;-82
2023/10/08 21:12:59;;;;;;;7.88;3.65;;;;;;;;;;5035637;28;20033;-82
2023/10/08 21:15:27;;;;;;;7.45;2.92;;;;;;;;;;5035713;28;20029;-84
2023/10/08 21:17:54;;;;;;;10.93;3.08;;;;;;;;;;5034061;28;20376;-85
2023/10/08 21:20:22;;;;;;;8.25;3.30;;;;;;;;;;5035422;28;20029;-83
2023/10/08 21:22:50;;;;;;;8.98;2.97;;;;;;;;;;5035337;28;20021;-84
2023/10/08 21:25:19;;;;;;;11.25;3.42;;;;;;;;;;5034107;28;20053;-83
2023/10/08 21:27:47;;;;;;;6.22;2.90;;;;;;;;;;5035119;28;20108;-83
2023/10/08 21:30:15;;;;;;;7.50;2.80;;;;;;;;;;5035421;28;20430;-82
2023/10/08 21:32:45;;;;;;;9.13;2.70;;;;;;;;;;5035219;28;20384;-82
2023/10/08 21:35:15;;;;;;;9.43;2.88;;;;;;;;;;5035050;28;20034;-82
2023/10/08 21:37:42;;;;;;;8.18;3.00;;;;;;;;;;5035225;28;20091;-83
2023/10/08 21:40:11;;;;;;;9.93;3.00;;;;;;;;;;5035114;28;20056;-84
2023/10/08 21:42:41;;;;;;;9.18;2.45;;;;;;;;;;5035017;28;20472;-87
2023/10/08 21:45:09;;;;;;;7.57;2.95;;;;;;;;;;5034499;28;20502;-83
2023/10/08 21:47:35;;;;;;;8.30;3.45;;;;;;;;;;5034772;28;20064;-84
2023/10/08 21:50:08;;;;;;;6.55;2.75;;;;;;;;;;5034825;28;20045;-85
2023/10/08 21:52:34;;;;;;;8.70;2.97;;;;;;;;;;5034787;28;20041;-86
2023/10/08 21:54:59;;;;;;;8.85;2.70;;;;;;;;;;5034844;28;20029;-86
2023/10/08 21:57:25;;;;;;;7.15;2.72;;;;;;;;;;5034755;28;20036;-84
2023/10/08 21:59:50;;;;;;;5.05;2.75;;;;;;;;;;5034466;28;20026;-84
2023/10/08 22:02:21;;;;;;;8.48;2.90;;;;;;;;;;5034781;28;20029;-84
2023/10/08 22:04:49;;;;;;;12.18;3.60;;;;;;;;;;5034475;28;20026;-84
2023/10/08 22:07:16;;;;;;;10.40;2.90;;;;;;;;;;5033327;28;20108;-84
2023/10/08 22:09:42;;;;;;;6.38;3.22;;;;;;;;;;5034366;28;20029;-84
2023/10/08 22:12:11;;;;;;;10.02;3.00;;;;;;;;;;5032978;28;20361;-85
2023/10/08 22:14:44;;;;;;;13.02;3.22;;;;;;;;;;5034401;28;20017;-85
2023/10/08 22:17:12;;;;;;;7.82;2.80;;;;;;;;;;5034280;28;20030;-84
2023/10/08 22:19:44;;;;;;;7.55;2.70;;;;;;;;;;5032882;28;20067;-84
2023/10/08 22:22:17;;;;;;;5.72;2.67;;;;;;;;;;5034087;28;20021;-84
2023/10/08 22:24:44;;;;;;;10.10;2.80;;;;;;;;;;5034534;28;20091;-83
2023/10/08 22:27:33;;;;;;;10.88;2.65;;;;;;;;;;5034256;28;20109;-84
2023/10/08 22:30:00;;;;;;;8.02;2.45;;;;;;;;;;5034257;28;20088;-82
2023/10/08 22:32:29;;;;;;;8.35;2.83;;;;;;;;;;5034210;28;20484;-82
2023/10/08 22:35:01;;;;;;;7.45;2.83;;;;;;;;;;5034277;28;20484;-85
